createdAt,value
2018-08-23T00:00:30.863Z,0.00
2018-08-23T00:01:30.860Z,0.00
2018-08-23T00:02:30.861Z,0.00
2018-08-23T00:03:30.871Z,0.00
2018-08-23T00:04:30.855Z,0.00
2018-08-23T00:05:30.865Z,0.00
2018-08-23T00:06:30.855Z,0.00
2018-08-23T00:07:30.850Z,0.00
2018-08-23T00:08:30.859Z,0.00
2018-08-23T00:09:30.859Z,0.00
2018-08-23T00:10:30.857Z,0.00
2018-08-23T00:11:30.845Z,0.00
2018-08-23T00:12:30.879Z,0.00
2018-08-23T00:13:30.847Z,0.00
2018-08-23T00:14:30.856Z,0.00
2018-08-23T00:15:30.847Z,0.00
2018-08-23T00:16:30.838Z,0.00
2018-08-23T00:17:30.842Z,0.00
2018-08-23T00:18:30.842Z,0.00
2018-08-23T00:19:30.841Z,0.00
2018-08-23T00:20:30.832Z,0.00
2018-08-23T00:21:30.836Z,0.00
2018-08-23T00:22:30.836Z,0.00
2018-08-23T00:23:30.830Z,0.00
2018-08-23T00:24:30.832Z,0.00
2018-08-23T00:25:30.836Z,0.00
2018-08-23T00:26:30.826Z,0.00
2018-08-23T00:27:30.828Z,0.00
2018-08-23T00:28:30.828Z,0.00
2018-08-23T00:29:30.822Z,0.00
2018-08-23T00:30:30.820Z,0.00
2018-08-23T00:31:30.832Z,0.00
2018-08-23T00:32:30.813Z,0.00
2018-08-23T00:33:30.817Z,0.00
2018-08-23T00:34:30.819Z,0.00
2018-08-23T00:35:30.815Z,0.00
2018-08-23T00:36:30.814Z,0.00
2018-08-23T00:37:30.816Z,0.00
2018-08-23T00:38:30.807Z,0.00
2018-08-23T00:39:30.810Z,0.00
2018-08-23T00:40:30.805Z,0.00
2018-08-23T00:41:30.803Z,0.00
2018-08-23T00:42:30.799Z,0.00
2018-08-23T00:43:30.804Z,0.00
2018-08-23T00:44:30.797Z,0.00
2018-08-23T00:45:30.801Z,0.00
2018-08-23T00:46:30.797Z,0.00
2018-08-23T00:47:30.792Z,0.00
2018-08-23T00:48:30.799Z,0.00
2018-08-23T00:49:30.789Z,0.00
2018-08-23T00:50:30.788Z,0.00
2018-08-23T00:51:30.786Z,0.00
2018-08-23T00:52:30.790Z,0.00
2018-08-23T00:53:30.782Z,0.00
2018-08-23T00:54:30.780Z,0.00
2018-08-23T00:55:30.779Z,0.00
2018-08-23T00:56:45.413Z,0.00
2018-08-23T00:57:30.774Z,0.00
2018-08-23T00:58:30.775Z,0.00
2018-08-23T00:59:30.773Z,0.00
2018-08-23T01:00:30.775Z,0.00
2018-08-23T01:01:30.771Z,0.00
2018-08-23T01:02:30.767Z,0.00
2018-08-23T01:03:30.767Z,0.00
2018-08-23T01:04:30.766Z,0.00
2018-08-23T01:05:30.760Z,0.00
2018-08-23T01:06:30.765Z,0.00
2018-08-23T01:07:30.761Z,0.00
2018-08-23T01:08:30.760Z,0.00
2018-08-23T01:09:30.765Z,0.00
2018-08-23T01:10:30.755Z,0.00
2018-08-23T01:11:30.749Z,0.00
2018-08-23T01:12:30.755Z,0.00
2018-08-23T01:13:30.759Z,0.00
2018-08-23T01:14:30.742Z,0.00
2018-08-23T01:15:30.745Z,0.00
2018-08-23T01:16:30.745Z,0.00
2018-08-23T01:17:30.743Z,0.00
2018-08-23T01:18:30.738Z,0.00
2018-08-23T01:19:30.740Z,0.00
2018-08-23T01:20:30.735Z,0.00
2018-08-23T01:21:31.400Z,0.00
2018-08-23T01:22:30.737Z,0.00
2018-08-23T01:23:30.732Z,0.00
2018-08-23T01:24:30.730Z,0.00
2018-08-23T01:25:30.728Z,0.00
2018-08-23T01:26:30.722Z,0.00
2018-08-23T01:27:30.718Z,0.00
2018-08-23T01:28:30.725Z,0.00
2018-08-23T01:29:30.717Z,0.00
2018-08-23T01:30:30.717Z,0.00
2018-08-23T01:31:30.713Z,0.00
2018-08-23T01:32:30.712Z,0.00
2018-08-23T01:33:30.714Z,0.00
2018-08-23T01:34:30.708Z,0.00
2018-08-23T01:35:30.707Z,0.00
2018-08-23T01:36:30.704Z,0.00
2018-08-23T01:37:30.707Z,0.00
2018-08-23T01:38:30.704Z,0.00
2018-08-23T01:39:30.698Z,0.00
2018-08-23T01:40:30.697Z,0.00
2018-08-23T01:41:30.696Z,0.00
2018-08-23T01:42:30.692Z,0.00
2018-08-23T01:43:30.687Z,0.00
2018-08-23T01:44:30.689Z,0.00
2018-08-23T01:45:30.688Z,0.00
2018-08-23T01:46:30.684Z,0.00
2018-08-23T01:47:30.684Z,0.00
2018-08-23T01:48:30.689Z,0.00
2018-08-23T01:49:30.681Z,0.00
2018-08-23T01:50:30.677Z,0.00
2018-08-23T01:51:30.672Z,0.00
2018-08-23T01:52:30.670Z,0.00
2018-08-23T01:53:30.685Z,0.00
2018-08-23T01:54:30.666Z,0.00
2018-08-23T01:55:30.668Z,0.00
2018-08-23T01:56:30.673Z,0.00
2018-08-23T01:57:30.663Z,0.00
2018-08-23T01:58:30.657Z,0.00
2018-08-23T01:59:30.661Z,0.00
2018-08-23T02:00:30.654Z,0.00
2018-08-23T02:01:30.655Z,0.00
2018-08-23T02:02:30.657Z,0.00
2018-08-23T02:03:30.646Z,0.00
2018-08-23T02:04:30.645Z,0.00
2018-08-23T02:05:30.648Z,0.00
2018-08-23T02:06:30.640Z,0.00
2018-08-23T02:07:30.638Z,0.00
2018-08-23T02:08:30.638Z,0.00
2018-08-23T02:09:30.638Z,0.00
2018-08-23T02:10:30.640Z,0.00
2018-08-23T02:11:30.634Z,0.00
2018-08-23T02:12:30.629Z,0.00
2018-08-23T02:13:30.633Z,0.00
2018-08-23T02:14:30.620Z,0.00
2018-08-23T02:15:30.628Z,0.00
2018-08-23T02:16:30.622Z,0.00
2018-08-23T02:17:30.616Z,0.00
2018-08-23T02:18:30.618Z,0.00
2018-08-23T02:19:30.614Z,0.00
2018-08-23T02:20:30.623Z,0.00
2018-08-23T02:21:30.612Z,0.00
2018-08-23T02:22:30.608Z,0.00
2018-08-23T02:23:30.608Z,0.00
2018-08-23T02:24:30.609Z,0.00
2018-08-23T02:25:30.600Z,0.00
2018-08-23T02:26:30.601Z,0.00
2018-08-23T02:27:30.594Z,0.00
2018-08-23T02:28:30.594Z,0.00
2018-08-23T02:29:30.596Z,0.00
2018-08-23T02:30:30.590Z,0.00
2018-08-23T02:31:30.589Z,0.00
2018-08-23T02:32:30.590Z,0.00
2018-08-23T02:33:30.584Z,0.00
2018-08-23T02:34:30.587Z,0.00
2018-08-23T02:35:30.580Z,0.00
2018-08-23T02:36:30.574Z,0.00
2018-08-23T02:37:30.574Z,0.00
2018-08-23T02:38:30.575Z,0.00
2018-08-23T02:39:30.571Z,0.00
2018-08-23T02:40:30.568Z,0.00
2018-08-23T02:41:30.570Z,0.00
2018-08-23T02:42:30.564Z,0.00
2018-08-23T02:43:30.563Z,0.00
2018-08-23T02:44:30.570Z,0.00
2018-08-23T02:45:30.560Z,0.00
2018-08-23T02:46:30.556Z,0.00
2018-08-23T02:47:30.559Z,0.00
2018-08-23T02:48:30.552Z,0.00
2018-08-23T02:49:30.551Z,0.00
2018-08-23T02:50:30.545Z,0.00
2018-08-23T02:51:30.541Z,0.00
2018-08-23T02:52:30.546Z,0.00
2018-08-23T02:53:30.541Z,0.00
2018-08-23T02:54:30.541Z,0.00
2018-08-23T02:55:30.545Z,0.00
2018-08-23T02:56:30.535Z,0.00
2018-08-23T02:57:30.529Z,0.00
2018-08-23T02:58:30.531Z,0.00
2018-08-23T02:59:30.525Z,0.00
2018-08-23T03:00:30.534Z,0.00
2018-08-23T03:01:30.525Z,0.00
2018-08-23T03:02:30.517Z,0.00
2018-08-23T03:03:30.517Z,0.00
2018-08-23T03:04:30.522Z,0.00
2018-08-23T03:05:30.513Z,0.00
2018-08-23T03:06:30.559Z,0.00
2018-08-23T03:07:30.505Z,0.00
2018-08-23T03:08:30.502Z,0.00
2018-08-23T03:09:30.506Z,0.00
2018-08-23T03:10:30.502Z,0.00
2018-08-23T03:11:30.510Z,0.00
2018-08-23T03:12:30.495Z,0.00
2018-08-23T03:13:30.497Z,0.00
2018-08-23T03:14:30.494Z,0.00
2018-08-23T03:15:30.491Z,0.00
2018-08-23T03:16:30.486Z,0.00
2018-08-23T03:17:30.496Z,0.00
2018-08-23T03:18:30.485Z,0.00
2018-08-23T03:19:30.481Z,0.00
2018-08-23T03:20:30.484Z,0.00
2018-08-23T03:21:30.488Z,0.00
2018-08-23T03:22:30.473Z,0.00
2018-08-23T03:23:30.470Z,0.00
2018-08-23T03:24:30.471Z,0.00
2018-08-23T03:25:30.467Z,0.00
2018-08-23T03:26:30.465Z,0.00
2018-08-23T03:27:30.463Z,0.00
2018-08-23T03:28:30.464Z,0.00
2018-08-23T03:29:30.459Z,0.00
2018-08-23T03:30:30.458Z,0.00
2018-08-23T03:31:30.451Z,0.00
2018-08-23T03:32:30.449Z,0.00
2018-08-23T03:33:30.450Z,0.00
2018-08-23T03:34:30.445Z,0.00
2018-08-23T03:35:30.444Z,0.00
2018-08-23T03:36:30.444Z,0.00
2018-08-23T03:37:30.441Z,0.00
2018-08-23T03:38:30.432Z,0.00
2018-08-23T03:39:30.435Z,0.00
2018-08-23T03:40:30.433Z,0.00
2018-08-23T03:41:30.429Z,0.00
2018-08-23T03:42:30.436Z,0.00
2018-08-23T03:43:30.431Z,0.00
2018-08-23T03:44:30.418Z,0.00
2018-08-23T03:45:30.421Z,0.00
2018-08-23T03:46:30.413Z,0.00
2018-08-23T03:47:30.411Z,0.00
2018-08-23T03:48:30.411Z,0.00
2018-08-23T03:49:30.418Z,0.00
2018-08-23T03:50:30.407Z,0.00
2018-08-23T03:51:30.406Z,0.00
2018-08-23T03:52:30.448Z,0.00
2018-08-23T03:53:30.401Z,0.00
2018-08-23T03:54:30.393Z,4.00
2018-08-23T03:55:30.396Z,4.00
2018-08-23T03:56:30.397Z,0.00
2018-08-23T03:57:30.395Z,4.00
2018-08-23T03:58:30.388Z,4.00
2018-08-23T03:59:30.382Z,4.00
2018-08-23T04:00:30.377Z,8.00
2018-08-23T04:01:30.381Z,4.00
2018-08-23T04:02:30.371Z,8.00
2018-08-23T04:03:30.372Z,8.00
2018-08-23T04:04:30.371Z,8.00
2018-08-23T04:05:30.368Z,12.00
2018-08-23T04:06:30.366Z,16.00
2018-08-23T04:07:30.364Z,20.00
2018-08-23T04:08:30.362Z,20.00
2018-08-23T04:09:30.358Z,20.00
2018-08-23T04:10:30.356Z,28.00
2018-08-23T04:11:30.358Z,28.00
2018-08-23T04:12:30.353Z,32.00
2018-08-23T04:13:30.349Z,36.00
2018-08-23T04:14:30.339Z,44.00
2018-08-23T04:15:30.448Z,48.00
2018-08-23T04:16:30.342Z,56.00
2018-08-23T04:17:30.346Z,60.00
2018-08-23T04:18:30.336Z,68.00
2018-08-23T04:19:30.340Z,80.00
2018-08-23T04:20:30.326Z,84.00
2018-08-23T04:21:30.324Z,96.00
2018-08-23T04:22:30.335Z,108.00
2018-08-23T04:23:30.327Z,116.00
2018-08-23T04:24:30.317Z,128.00
2018-08-23T04:25:30.313Z,140.00
2018-08-23T04:26:30.313Z,152.00
2018-08-23T04:27:30.310Z,168.00
2018-08-23T04:28:30.312Z,180.00
2018-08-23T04:29:30.312Z,196.00
2018-08-23T04:30:30.305Z,212.00
2018-08-23T04:31:30.295Z,228.00
2018-08-23T04:32:30.299Z,244.00
2018-08-23T04:33:30.293Z,260.00
2018-08-23T04:34:30.292Z,276.00
2018-08-23T04:35:30.290Z,288.00
2018-08-23T04:36:30.285Z,304.00
2018-08-23T04:37:30.288Z,320.00
2018-08-23T04:38:30.277Z,340.00
2018-08-23T04:39:30.277Z,352.00
2018-08-23T04:40:30.293Z,372.00
2018-08-23T04:41:30.274Z,388.00
2018-08-23T04:42:30.269Z,412.00
2018-08-23T04:43:30.263Z,432.00
2018-08-23T04:44:30.265Z,448.00
2018-08-23T04:45:30.268Z,472.00
2018-08-23T04:46:30.257Z,492.00
2018-08-23T04:47:30.259Z,512.00
2018-08-23T04:48:30.254Z,540.00
2018-08-23T04:49:30.251Z,572.00
2018-08-23T04:50:30.251Z,600.00
2018-08-23T04:51:30.248Z,636.00
2018-08-23T04:52:30.244Z,668.00
2018-08-23T04:53:30.249Z,696.00
2018-08-23T04:54:30.237Z,728.00
2018-08-23T04:55:30.262Z,768.00
2018-08-23T04:56:30.239Z,808.00
2018-08-23T04:57:30.233Z,848.00
2018-08-23T04:58:30.227Z,892.00
2018-08-23T04:59:30.227Z,936.00
2018-08-23T05:00:30.222Z,980.00
2018-08-23T05:01:30.223Z,1028.00
2018-08-23T05:02:30.229Z,1080.00
2018-08-23T05:03:30.217Z,1124.00
2018-08-23T05:04:30.213Z,1180.00
2018-08-23T05:05:30.207Z,1236.00
2018-08-23T05:06:30.204Z,1292.00
2018-08-23T05:07:30.208Z,1348.00
2018-08-23T05:08:30.200Z,1412.00
2018-08-23T05:09:30.201Z,1476.00
2018-08-23T05:10:30.202Z,1544.00
2018-08-23T05:11:30.192Z,1612.00
2018-08-23T05:12:30.187Z,1676.00
2018-08-23T05:13:30.187Z,1748.00
2018-08-23T05:14:30.184Z,1816.00
2018-08-23T05:15:30.182Z,1888.00
2018-08-23T05:16:30.183Z,1948.00
2018-08-23T05:17:30.178Z,2004.00
2018-08-23T05:18:30.182Z,2068.00
2018-08-23T05:19:30.171Z,2152.00
2018-08-23T05:20:30.171Z,2244.00
2018-08-23T05:21:30.173Z,2320.00
2018-08-23T05:22:30.164Z,2384.00
2018-08-23T05:23:30.164Z,2460.00
2018-08-23T05:24:31.047Z,2544.00
2018-08-23T05:25:30.164Z,2632.00
2018-08-23T05:26:30.157Z,2716.00
2018-08-23T05:27:30.172Z,2780.00
2018-08-23T05:28:30.151Z,2832.00
2018-08-23T05:29:30.150Z,2888.00
2018-08-23T05:30:30.148Z,2968.00
2018-08-23T05:31:30.146Z,3064.00
2018-08-23T05:32:30.141Z,3164.00
2018-08-23T05:33:30.143Z,3256.00
2018-08-23T05:34:30.138Z,3356.00
2018-08-23T05:35:30.141Z,3436.00
2018-08-23T05:36:30.132Z,3516.00
2018-08-23T05:37:30.153Z,3584.00
2018-08-23T05:38:30.128Z,3628.00
2018-08-23T05:39:30.129Z,3696.00
2018-08-23T05:40:30.133Z,3820.00
2018-08-23T05:41:30.120Z,3960.00
2018-08-23T05:42:30.119Z,4080.00
2018-08-23T05:43:30.121Z,4164.00
2018-08-23T05:44:30.113Z,4296.00
2018-08-23T05:45:30.109Z,4400.00
2018-08-23T05:46:30.113Z,4484.00
2018-08-23T05:47:30.119Z,4484.00
2018-08-23T05:48:30.113Z,4484.00
2018-08-23T05:49:30.101Z,4436.00
2018-08-23T05:50:30.100Z,4488.00
2018-08-23T05:51:30.100Z,4512.00
2018-08-23T05:52:30.097Z,4528.00
2018-08-23T05:53:30.094Z,4560.00
2018-08-23T05:54:30.102Z,4568.00
2018-08-23T05:55:30.095Z,4560.00
2018-08-23T05:56:30.086Z,4560.00
2018-08-23T05:57:30.084Z,4596.00
2018-08-23T05:58:30.083Z,4684.00
2018-08-23T05:59:30.085Z,4836.00
2018-08-23T06:00:30.082Z,4976.00
2018-08-23T06:01:30.083Z,5068.00
2018-08-23T06:02:30.077Z,5124.00
2018-08-23T06:03:30.076Z,5124.00
2018-08-23T06:04:30.072Z,5164.00
2018-08-23T06:05:30.073Z,5256.00
2018-08-23T06:06:30.066Z,5364.00
2018-08-23T06:07:30.070Z,5564.00
2018-08-23T06:08:30.072Z,5764.00
2018-08-23T06:09:30.067Z,5852.00
2018-08-23T06:10:30.063Z,6004.00
2018-08-23T06:11:30.062Z,6144.00
2018-08-23T06:12:30.058Z,6248.00
2018-08-23T06:13:30.058Z,6392.00
2018-08-23T06:14:30.057Z,6528.00
2018-08-23T06:15:30.054Z,6748.00
2018-08-23T06:16:30.052Z,6976.00
2018-08-23T06:17:30.048Z,7128.00
2018-08-23T06:18:30.047Z,7328.00
2018-08-23T06:19:30.046Z,7432.00
2018-08-23T06:20:30.045Z,7536.00
2018-08-23T06:21:30.047Z,7684.00
2018-08-23T06:22:30.044Z,7964.00
2018-08-23T06:23:30.037Z,8236.00
2018-08-23T06:24:30.044Z,8428.00
2018-08-23T06:25:30.046Z,8316.00
2018-08-23T06:26:30.032Z,8276.00
2018-08-23T06:27:30.128Z,8104.00
2018-08-23T06:28:30.047Z,7824.00
2018-08-23T06:29:30.032Z,7800.00
2018-08-23T06:30:30.030Z,7840.00
2018-08-23T06:31:30.029Z,8488.00
2018-08-23T06:32:30.031Z,8088.00
2018-08-23T06:33:30.193Z,8464.00
2018-08-23T06:34:30.128Z,8468.00
2018-08-23T06:35:30.080Z,8528.00
2018-08-23T06:36:30.023Z,8624.00
2018-08-23T06:37:30.026Z,8648.00
2018-08-23T06:38:30.033Z,8556.00
2018-08-23T06:39:30.037Z,8216.00
2018-08-23T06:40:30.013Z,7948.00
2018-08-23T06:41:30.017Z,7816.00
2018-08-23T06:42:30.016Z,7860.00
2018-08-23T06:43:30.014Z,8200.00
2018-08-23T06:44:30.031Z,8364.00
2018-08-23T06:45:30.017Z,8052.00
2018-08-23T06:46:30.014Z,8064.00
2018-08-23T06:47:30.009Z,8296.00
2018-08-23T06:48:30.004Z,8688.00
2018-08-23T06:49:30.023Z,9460.00
2018-08-23T06:50:30.006Z,9696.00
2018-08-23T06:51:30.002Z,9844.00
2018-08-23T06:52:30.004Z,9680.00
2018-08-23T06:53:30.004Z,9408.00
2018-08-23T06:54:29.996Z,9328.00
2018-08-23T06:55:30.003Z,9408.00
2018-08-23T06:56:30.018Z,9460.00
2018-08-23T06:57:29.997Z,9388.00
2018-08-23T06:58:30.000Z,9244.00
2018-08-23T06:59:29.996Z,9160.00
2018-08-23T07:00:30.002Z,9084.00
2018-08-23T07:01:30.021Z,9084.00
2018-08-23T07:02:29.995Z,9088.00
2018-08-23T07:03:29.991Z,9168.00
2018-08-23T07:04:29.990Z,9268.00
2018-08-23T07:05:30.045Z,9308.00
2018-08-23T07:06:29.998Z,9420.00
2018-08-23T07:07:30.617Z,9280.00
2018-08-23T07:08:29.984Z,9376.00
2018-08-23T07:09:29.982Z,9668.00
2018-08-23T07:10:30.008Z,9664.00
2018-08-23T07:11:29.989Z,9968.00
2018-08-23T07:12:29.982Z,9728.00
2018-08-23T07:13:29.979Z,9640.00
2018-08-23T07:14:29.976Z,9760.00
2018-08-23T07:15:29.974Z,10144.00
2018-08-23T07:16:29.975Z,10408.00
2018-08-23T07:17:30.049Z,10176.00
2018-08-23T07:18:29.991Z,10100.00
2018-08-23T07:19:29.974Z,9876.00
2018-08-23T07:20:29.976Z,9828.00
2018-08-23T07:21:29.970Z,10184.00
2018-08-23T07:22:30.009Z,10492.00
2018-08-23T07:23:29.967Z,10256.00
2018-08-23T07:24:29.968Z,9720.00
2018-08-23T07:25:29.966Z,9996.00
2018-08-23T07:26:29.968Z,10644.00
2018-08-23T07:27:29.968Z,10140.00
2018-08-23T07:28:29.963Z,10772.00
2018-08-23T07:29:29.978Z,11412.00
2018-08-23T07:30:29.959Z,13072.00
2018-08-23T07:31:29.967Z,13980.00
2018-08-23T07:32:29.989Z,11132.00
2018-08-23T07:33:29.963Z,11284.00
2018-08-23T07:34:29.959Z,12044.00
2018-08-23T07:35:29.956Z,14052.00
2018-08-23T07:36:29.955Z,13892.00
2018-08-23T07:37:29.961Z,11152.00
2018-08-23T07:38:29.955Z,11280.00
2018-08-23T07:39:29.959Z,11832.00
2018-08-23T07:40:29.963Z,22816.00
2018-08-23T07:41:29.956Z,22624.00
2018-08-23T07:42:29.953Z,13228.00
2018-08-23T07:43:29.949Z,13908.00
2018-08-23T07:44:29.955Z,23008.00
2018-08-23T07:45:29.950Z,16704.00
2018-08-23T07:46:29.993Z,18144.00
2018-08-23T07:47:29.947Z,18656.00
2018-08-23T07:48:29.968Z,18336.00
2018-08-23T07:49:29.952Z,17632.00
2018-08-23T07:50:29.953Z,14536.00
2018-08-23T07:51:29.951Z,11980.00
2018-08-23T07:52:29.970Z,12356.00
2018-08-23T07:53:30.103Z,14064.00
2018-08-23T07:54:29.953Z,15316.00
2018-08-23T07:55:29.951Z,17180.00
2018-08-23T07:56:29.952Z,12824.00
2018-08-23T07:57:29.956Z,13188.00
2018-08-23T07:58:29.964Z,15788.00
2018-08-23T07:59:29.952Z,17952.00
2018-08-23T08:00:29.953Z,12096.00
2018-08-23T08:01:29.961Z,12536.00
2018-08-23T08:02:29.965Z,14852.00
2018-08-23T08:03:29.993Z,18976.00
2018-08-23T08:04:29.961Z,21248.00
2018-08-23T08:05:29.960Z,17056.00
2018-08-23T08:06:29.967Z,15988.00
2018-08-23T08:07:29.968Z,16012.00
2018-08-23T08:08:29.998Z,22560.00
2018-08-23T08:09:29.997Z,18368.00
2018-08-23T08:10:29.968Z,30144.00
2018-08-23T08:11:29.971Z,29760.00
2018-08-23T08:12:29.969Z,40128.00
2018-08-23T08:13:29.981Z,39968.00
2018-08-23T08:14:29.972Z,33344.00
2018-08-23T08:15:29.975Z,32192.00
2018-08-23T08:16:29.979Z,34624.00
2018-08-23T08:17:29.983Z,39488.00
2018-08-23T08:18:29.978Z,40192.00
2018-08-23T08:19:29.984Z,39936.00
2018-08-23T08:20:29.985Z,40320.00
2018-08-23T08:21:30.042Z,21952.00
2018-08-23T08:22:29.986Z,14936.00
2018-08-23T08:23:29.992Z,32864.00
2018-08-23T08:24:29.992Z,45600.00
2018-08-23T08:25:29.999Z,43456.00
2018-08-23T08:26:29.997Z,19040.00
2018-08-23T08:27:30.002Z,11764.00
2018-08-23T08:28:30.010Z,47008.00
2018-08-23T08:29:30.012Z,37632.00
2018-08-23T08:30:30.015Z,17976.00
2018-08-23T08:31:30.020Z,42464.00
2018-08-23T08:32:30.018Z,46432.00
2018-08-23T08:33:30.023Z,41376.00
2018-08-23T08:34:30.027Z,42560.00
2018-08-23T08:35:30.035Z,42080.00
2018-08-23T08:36:30.038Z,43040.00
2018-08-23T08:37:30.039Z,41696.00
2018-08-23T08:38:30.042Z,46752.00
2018-08-23T08:39:30.049Z,46944.00
2018-08-23T08:40:30.049Z,45664.00
2018-08-23T08:41:30.052Z,47264.00
2018-08-23T08:42:30.069Z,43968.00
2018-08-23T08:43:30.067Z,44416.00
2018-08-23T08:44:30.072Z,45920.00
2018-08-23T08:45:30.075Z,46528.00
2018-08-23T08:46:30.079Z,43456.00
2018-08-23T08:47:30.087Z,43232.00
2018-08-23T08:48:30.088Z,43936.00
2018-08-23T08:49:30.097Z,44640.00
2018-08-23T08:50:30.143Z,44992.00
2018-08-23T08:51:30.104Z,46336.00
2018-08-23T08:52:30.113Z,49536.00
2018-08-23T08:53:30.120Z,49408.00
2018-08-23T08:54:30.118Z,51072.00
2018-08-23T08:55:30.136Z,45824.00
2018-08-23T08:56:30.142Z,48128.00
2018-08-23T08:57:30.156Z,50176.00
2018-08-23T08:58:30.158Z,48896.00
2018-08-23T08:59:30.152Z,48864.00
2018-08-23T09:00:30.157Z,50176.00
2018-08-23T09:01:30.188Z,49792.00
2018-08-23T09:02:30.181Z,44736.00
2018-08-23T09:03:30.175Z,51264.00
2018-08-23T09:04:30.181Z,18784.00
2018-08-23T09:05:30.210Z,51680.00
2018-08-23T09:06:30.194Z,47712.00
2018-08-23T09:07:30.200Z,53824.00
2018-08-23T09:08:30.206Z,33696.00
2018-08-23T09:09:30.217Z,51616.00
2018-08-23T09:10:30.216Z,51680.00
2018-08-23T09:11:30.245Z,53504.00
2018-08-23T09:12:30.236Z,53824.00
2018-08-23T09:13:30.238Z,54656.00
2018-08-23T09:14:30.245Z,52736.00
2018-08-23T09:15:30.272Z,53504.00
2018-08-23T09:16:30.263Z,53120.00
2018-08-23T09:17:30.275Z,56576.00
2018-08-23T09:18:30.275Z,58144.00
2018-08-23T09:19:30.283Z,58752.00
2018-08-23T09:20:30.327Z,55616.00
2018-08-23T09:21:30.292Z,58048.00
2018-08-23T09:22:30.311Z,58048.00
2018-08-23T09:23:30.310Z,54880.00
2018-08-23T09:24:30.314Z,41440.00
2018-08-23T09:25:30.319Z,53760.00
2018-08-23T09:26:30.328Z,56800.00
2018-08-23T09:27:30.333Z,55936.00
2018-08-23T09:28:30.339Z,59392.00
2018-08-23T09:29:30.359Z,58688.00
2018-08-23T09:30:30.354Z,60384.00
2018-08-23T09:31:30.362Z,17928.00
2018-08-23T09:32:30.367Z,60768.00
2018-08-23T09:33:30.374Z,64800.00
2018-08-23T09:34:30.379Z,72576.00
2018-08-23T09:35:30.390Z,66976.00
2018-08-23T09:36:30.396Z,63008.00
2018-08-23T09:37:30.409Z,60736.00
2018-08-23T09:38:30.409Z,65408.00
2018-08-23T09:39:30.420Z,64800.00
2018-08-23T09:40:30.431Z,68704.00
2018-08-23T09:41:30.437Z,66336.00
2018-08-23T09:42:30.439Z,68032.00
2018-08-23T09:43:30.447Z,68928.00
2018-08-23T09:44:30.460Z,68256.00
2018-08-23T09:45:30.464Z,64960.00
2018-08-23T09:46:30.471Z,61536.00
2018-08-23T09:47:30.480Z,67552.00
2018-08-23T09:48:30.489Z,69632.00
2018-08-23T09:49:30.497Z,55904.00
2018-08-23T09:50:30.504Z,17004.00
2018-08-23T09:51:30.509Z,62016.00
2018-08-23T09:52:30.518Z,55328.00
2018-08-23T09:53:30.522Z,69920.00
2018-08-23T09:54:30.530Z,69312.00
2018-08-23T09:55:30.539Z,69184.00
2018-08-23T09:56:30.605Z,60128.00
2018-08-23T09:57:30.562Z,67104.00
2018-08-23T09:58:30.559Z,62976.00
2018-08-23T09:59:30.569Z,59776.00
2018-08-23T10:00:30.575Z,23264.00
2018-08-23T10:01:30.581Z,22240.00
2018-08-23T10:02:30.589Z,62176.00
2018-08-23T10:03:30.596Z,21408.00
2018-08-23T10:04:30.606Z,63520.00
2018-08-23T10:05:30.612Z,23808.00
2018-08-23T10:06:30.615Z,55936.00
2018-08-23T10:07:30.622Z,15744.00
2018-08-23T10:08:30.630Z,16060.00
2018-08-23T10:09:30.640Z,40864.00
2018-08-23T10:10:30.644Z,15336.00
2018-08-23T10:11:30.733Z,16576.00
2018-08-23T10:12:30.653Z,20736.00
2018-08-23T10:13:30.662Z,20992.00
2018-08-23T10:14:30.667Z,26336.00
2018-08-23T10:15:30.676Z,18976.00
2018-08-23T10:16:30.678Z,64000.00
2018-08-23T10:17:30.694Z,66720.00
2018-08-23T10:18:30.688Z,67936.00
2018-08-23T10:19:30.691Z,69600.00
2018-08-23T10:20:30.697Z,76512.00
2018-08-23T10:21:30.709Z,75296.00
2018-08-23T10:22:30.711Z,75232.00
2018-08-23T10:23:30.721Z,74976.00
2018-08-23T10:24:30.720Z,66336.00
2018-08-23T10:25:30.738Z,70880.00
2018-08-23T10:26:30.791Z,68320.00
2018-08-23T10:27:30.740Z,67680.00
2018-08-23T10:28:30.750Z,64032.00
2018-08-23T10:29:30.760Z,58176.00
2018-08-23T10:30:30.758Z,67904.00
2018-08-23T10:31:30.765Z,64736.00
2018-08-23T10:32:30.772Z,62208.00
2018-08-23T10:33:30.791Z,64672.00
2018-08-23T10:34:30.785Z,68736.00
2018-08-23T10:35:30.786Z,70752.00
2018-08-23T10:36:30.802Z,71360.00
2018-08-23T10:37:30.810Z,71584.00
2018-08-23T10:38:30.825Z,71008.00
2018-08-23T10:39:30.809Z,67744.00
2018-08-23T10:40:30.824Z,69920.00
2018-08-23T10:41:30.822Z,67264.00
2018-08-23T10:42:30.835Z,67520.00
2018-08-23T10:43:30.838Z,32064.00
2018-08-23T10:44:30.909Z,70560.00
2018-08-23T10:45:30.855Z,34624.00
2018-08-23T10:46:30.855Z,27104.00
2018-08-23T10:47:30.862Z,25152.00
2018-08-23T10:48:30.868Z,26336.00
2018-08-23T10:49:30.876Z,21568.00
2018-08-23T10:50:30.926Z,20512.00
2018-08-23T10:51:30.894Z,30560.00
2018-08-23T10:52:30.896Z,20928.00
2018-08-23T10:53:30.918Z,51616.00
2018-08-23T10:54:30.908Z,20672.00
2018-08-23T10:55:30.913Z,20288.00
2018-08-23T10:56:30.936Z,58176.00
2018-08-23T10:57:30.923Z,56096.00
2018-08-23T10:58:30.932Z,43072.00
2018-08-23T10:59:30.940Z,21280.00
2018-08-23T11:00:30.941Z,22816.00
2018-08-23T11:01:30.946Z,29248.00
2018-08-23T11:02:30.953Z,68160.00
2018-08-23T11:03:30.960Z,73472.00
2018-08-23T11:04:30.968Z,68736.00
2018-08-23T11:05:30.970Z,67296.00
2018-08-23T11:06:30.976Z,46048.00
2018-08-23T11:07:30.977Z,61408.00
2018-08-23T11:08:30.986Z,31232.00
2018-08-23T11:09:30.993Z,27712.00
2018-08-23T11:10:30.998Z,23200.00
2018-08-23T11:11:31.002Z,24512.00
2018-08-23T11:12:31.008Z,57376.00
2018-08-23T11:13:31.017Z,23872.00
2018-08-23T11:14:31.020Z,19840.00
2018-08-23T11:15:31.027Z,24448.00
2018-08-23T11:16:31.032Z,26528.00
2018-08-23T11:17:31.036Z,19072.00
2018-08-23T11:18:31.045Z,16356.00
2018-08-23T11:19:31.047Z,18112.00
2018-08-23T11:20:31.055Z,68224.00
2018-08-23T11:21:31.058Z,70112.00
2018-08-23T11:22:31.063Z,74400.00
2018-08-23T11:23:31.062Z,77920.00
2018-08-23T11:24:31.072Z,77024.00
2018-08-23T11:25:31.078Z,74400.00
2018-08-23T11:26:31.086Z,39264.00
2018-08-23T11:27:31.090Z,79200.00
2018-08-23T11:28:31.104Z,75968.00
2018-08-23T11:29:31.144Z,68992.00
2018-08-23T11:30:31.102Z,68224.00
2018-08-23T11:31:31.108Z,67808.00
2018-08-23T11:32:31.118Z,38240.00
2018-08-23T11:33:31.128Z,20928.00
2018-08-23T11:34:31.136Z,17088.00
2018-08-23T11:35:31.151Z,16216.00
2018-08-23T11:36:31.145Z,16080.00
2018-08-23T11:37:31.143Z,17408.00
2018-08-23T11:38:31.152Z,21824.00
2018-08-23T11:39:31.154Z,23552.00
2018-08-23T11:40:31.163Z,19200.00
2018-08-23T11:41:31.174Z,46624.00
2018-08-23T11:42:31.172Z,73792.00
2018-08-23T11:43:31.181Z,24160.00
2018-08-23T11:44:31.183Z,81664.00
2018-08-23T11:45:31.189Z,80768.00
2018-08-23T11:46:31.195Z,81504.00
2018-08-23T11:47:31.202Z,80288.00
2018-08-23T11:48:31.216Z,74656.00
2018-08-23T11:49:31.215Z,76288.00
2018-08-23T11:50:31.224Z,75968.00
2018-08-23T11:51:31.228Z,69248.00
2018-08-23T11:52:31.234Z,75360.00
2018-08-23T11:53:31.371Z,82016.00
2018-08-23T11:54:31.244Z,51040.00
2018-08-23T11:55:31.252Z,61408.00
2018-08-23T11:56:31.255Z,25984.00
2018-08-23T11:57:31.263Z,22304.00
2018-08-23T11:58:31.267Z,23552.00
2018-08-23T11:59:31.276Z,71584.00
2018-08-23T12:00:31.281Z,74080.00
2018-08-23T12:01:31.313Z,22688.00
2018-08-23T12:02:31.293Z,22400.00
2018-08-23T12:03:31.302Z,23328.00
2018-08-23T12:04:31.299Z,25952.00
2018-08-23T12:05:31.313Z,20832.00
2018-08-23T12:06:31.837Z,15528.00
2018-08-23T12:07:31.318Z,14400.00
2018-08-23T12:08:31.322Z,14988.00
2018-08-23T12:09:31.327Z,16676.00
2018-08-23T12:10:31.333Z,17440.00
2018-08-23T12:11:31.340Z,20032.00
2018-08-23T12:12:31.346Z,24480.00
2018-08-23T12:13:31.354Z,71072.00
2018-08-23T12:14:31.355Z,37888.00
2018-08-23T12:15:31.376Z,74336.00
2018-08-23T12:16:31.365Z,67872.00
2018-08-23T12:17:31.380Z,46528.00
2018-08-23T12:18:31.369Z,64416.00
2018-08-23T12:19:31.377Z,30464.00
2018-08-23T12:20:31.384Z,27872.00
2018-08-23T12:21:31.390Z,70464.00